Time;durP1;ratioP1;P1;durP2;ratioP2;P2;SDS_P1;SDS_P2;PMS_P1;PMS_P2;Temp;Humidity;BMP_temperature;BMP_pressure;BME280_temperature;BME280_humidity;BME280_pressure;Samples;Min_cycle;Max_cycle;Signal;HPM_P1;HPM_P2
2023/08/13 00:01:54;;;;;;;;;;;;;;;;;;6265694;28;19920;-60
2023/08/13 00:04:55;;;;;;;;;;;;;;;;;;6262080;28;20280;-61
2023/08/13 00:07:55;;;;;;;;;;;;;;;;;;6247305;28;20384;-61
2023/08/13 00:10:56;;;;;;;;;;;;;;;;;;6267842;28;19929;-59
2023/08/13 00:13:56;;;;;;;;;;;;;;;;;;6266970;28;20640;-61
2023/08/13 00:16:57;;;;;;;;;;;;;;;;;;6265110;28;19925;-60
2023/08/13 00:19:57;;;;;;;;;;;;;;;;;;6270048;28;19971;-61
2023/08/13 00:22:58;;;;;;;;;;;;;;;;;;6267881;28;19925;-61
2023/08/13 00:25:59;;;;;;;;;;;;;;;;;;6267307;28;19931;-58
2023/08/13 00:28:59;;;;;;;;;;;;;;;;;;6268728;28;19925;-59
2023/08/13 00:31:59;;;;;;;;;;;;;;;;;;6268096;28;19931;-60
2023/08/13 00:35:00;;;;;;;;;;;;;;;;;;6268855;28;19928;-58
2023/08/13 00:38:01;;;;;;;;;;;;;;;;;;6269510;28;19943;-60
2023/08/13 00:41:01;;;;;;;;;;;;;;;;;;6267523;28;19921;-58
2023/08/13 00:44:02;;;;;;;;;;;;;;;;;;6268732;28;19924;-61
2023/08/13 00:47:02;;;;;;;;;;;;;;;;;;6268655;28;19931;-60
2023/08/13 00:50:04;;;;;;;;;;;;;;;;;;6267197;28;19925;-60
2023/08/13 00:53:05;;;;;;;;;;;;;;;;;;6268277;28;19947;-60
2023/08/13 00:56:06;;;;;;;;;;;;;;;;;;6266345;28;19925;-56
2023/08/13 00:59:06;;;;;;;;;;;;;;;;;;6268712;28;19925;-59
2023/08/13 01:02:07;;;;;;;;;;;;;;;;;;6267470;28;19999;-60
2023/08/13 01:05:08;;;;;;;;;;;;;;;;;;6265945;28;19924;-59
2023/08/13 01:08:11;;;;;;;;;;;;;;;;;;6267840;28;19925;-60
2023/08/13 01:11:15;;;;;;;;;;;;;;;;;;6268656;28;19925;-60
2023/08/13 01:14:15;;;;;;;;;;;;;;;;;;6265878;28;19932;-60
2023/08/13 01:17:17;;;;;;;;;;;;;;;;;;6268046;28;20023;-61
2023/08/13 01:20:18;;;;;;;;;;;;;;;;;;6267332;28;19972;-61
2023/08/13 01:23:18;;;;;;;;;;;;;;;;;;6265876;28;19924;-61
2023/08/13 01:26:21;;;;;;;;;;;;;;;;;;6276868;28;19925;-60
2023/08/13 01:29:29;;;;;;;;;;;;;;;;;;6267127;28;19927;-61
2023/08/13 01:32:33;;;;;;;;;;;;;;;;;;6258304;28;19974;-57
2023/08/13 01:35:34;;;;;;;;;;;;;;;;;;6265548;28;19931;-60
2023/08/13 01:38:35;;;;;;;;;;;;;;;;;;6265666;28;19924;-61
2023/08/13 01:41:42;;;;;;;;;;;;;;;;;;6264995;28;19929;-60
2023/08/13 01:44:42;;;;;;;;;;;;;;;;;;6261698;28;19974;-61
2023/08/13 01:47:43;;;;;;;;;;;;;;;;;;6261030;28;19933;-61
2023/08/13 01:50:43;;;;;;;;;;;;;;;;;;6264045;28;19951;-61
2023/08/13 01:53:44;;;;;;;;;;;;;;;;;;6258450;28;19928;-61
2023/08/13 01:56:44;;;;;;;;;;;;;;;;;;6259794;28;20295;-60
2023/08/13 01:59:45;;;;;;;;;;;;;;;;;;6266974;28;19931;-60
2023/08/13 02:02:45;;;;;;;;;;;;;;;;;;6266463;28;19975;-57
2023/08/13 02:05:46;;;;;;;;;;;;;;;;;;6264317;28;19921;-61
2023/08/13 02:08:46;;;;;;;;;;;;;;;;;;6265982;28;19996;-60
2023/08/13 02:11:47;;;;;;;;;;;;;;;;;;6264542;28;20393;-60
2023/08/13 02:14:47;;;;;;;;;;;;;;;;;;6252154;28;19932;-60
2023/08/13 02:17:48;;;;;;;;;;;;;;;;;;6240981;28;19972;-61
2023/08/13 02:20:48;;;;;;;;;;;;;;;;;;6240070;28;19948;-60
2023/08/13 02:23:49;;;;;;;;;;;;;;;;;;6238509;28;19933;-61
2023/08/13 02:26:49;;;;;;;;;;;;;;;;;;6241313;28;19924;-61
2023/08/13 02:29:50;;;;;;;;;;;;;;;;;;6240934;28;19931;-58
2023/08/13 02:32:50;;;;;;;;;;;;;;;;;;6239760;28;19931;-61
2023/08/13 02:35:51;;;;;;;;;;;;;;;;;;6239341;28;19994;-62
2023/08/13 02:38:51;;;;;;;;;;;;;;;;;;6238691;28;20287;-59
2023/08/13 02:41:52;;;;;;;;;;;;;;;;;;6240094;28;20290;-60
2023/08/13 02:44:52;;;;;;;;;;;;;;;;;;6238893;28;20015;-62
2023/08/13 02:47:53;;;;;;;;;;;;;;;;;;6239849;28;19922;-61
2023/08/13 02:50:53;;;;;;;;;;;;;;;;;;6235063;28;19940;-61
2023/08/13 02:53:54;;;;;;;;;;;;;;;;;;6239348;28;19929;-62
2023/08/13 02:56:54;;;;;;;;;;;;;;;;;;6236766;28;19925;-60
2023/08/13 02:59:55;;;;;;;;;;;;;;;;;;6239866;28;19932;-51
2023/08/13 03:02:55;;;;;;;;;;;;;;;;;;6236189;28;19948;-61
2023/08/13 03:05:56;;;;;;;;;;;;;;;;;;6238826;28;19936;-61
2023/08/13 03:08:56;;;;;;;;;;;;;;;;;;6238789;28;19924;-59
2023/08/13 03:11:57;;;;;;;;;;;;;;;;;;6223169;28;20020;-61
2023/08/13 03:14:57;;;;;;;;;;;;;;;;;;6236961;28;19931;-61
2023/08/13 03:17:58;;;;;;;;;;;;;;;;;;6223267;28;19928;-61
2023/08/13 03:20:58;;;;;;;;;;;;;;;;;;6238303;28;19927;-60
2023/08/13 03:23:59;;;;;;;;;;;;;;;;;;6238386;28;20035;-61
2023/08/13 03:26:59;;;;;;;;;;;;;;;;;;6236625;28;20408;-57
2023/08/13 03:30:00;;;;;;;;;;;;;;;;;;6227365;28;20286;-61
2023/08/13 03:33:01;;;;;;;;;;;;;;;;;;6235480;28;19936;-54
2023/08/13 03:36:01;;;;;;;;;;;;;;;;;;6235620;28;19929;-61
2023/08/13 03:39:02;;;;;;;;;;;;;;;;;;6236031;28;20414;-60
2023/08/13 03:42:02;;;;;;;;;;;;;;;;;;6239042;28;19929;-61
2023/08/13 03:45:03;;;;;;;;;;;;;;;;;;6235647;28;20629;-59
2023/08/13 03:48:04;;;;;;;;;;;;;;;;;;6242380;28;20354;-61
2023/08/13 03:51:04;;;;;;;;;;;;;;;;;;6243077;28;20611;-58
2023/08/13 03:54:05;;;;;;;;;;;;;;;;;;6243857;28;20291;-61
2023/08/13 03:57:05;;;;;;;;;;;;;;;;;;6240282;28;19933;-58
2023/08/13 04:00:06;;;;;;;;;;;;;;;;;;6242378;28;20327;-57
2023/08/13 04:03:08;;;;;;;;;;;;;;;;;;6240163;28;19925;-61
2023/08/13 04:06:09;;;;;;;;;;;;;;;;;;6241233;28;20391;-53
2023/08/13 04:09:09;;;;;;;;;;;;;;;;;;6240669;28;19925;-61
2023/08/13 04:12:10;;;;;;;;;;;;;;;;;;6243450;28;19948;-60
2023/08/13 04:15:10;;;;;;;;;;;;;;;;;;6240431;28;19921;-60
2023/08/13 04:18:11;;;;;;;;;;;;;;;;;;6242816;28;19925;-60
2023/08/13 04:21:11;;;;;;;;;;;;;;;;;;6241433;28;19921;-61
2023/08/13 04:24:12;;;;;;;;;;;;;;;;;;6241109;28;19990;-60
2023/08/13 04:27:12;;;;;;;;;;;;;;;;;;6240738;28;20386;-61
2023/08/13 04:30:13;;;;;;;;;;;;;;;;;;6244336;28;20387;-60
2023/08/13 04:33:13;;;;;;;;;;;;;;;;;;6239951;28;19975;-58
2023/08/13 04:36:14;;;;;;;;;;;;;;;;;;6240416;28;19925;-59
2023/08/13 04:39:14;;;;;;;;;;;;;;;;;;6241310;28;19944;-60
2023/08/13 04:42:15;;;;;;;;;;;;;;;;;;6240764;28;20168;-61
2023/08/13 04:45:15;;;;;;;;;;;;;;;;;;6237879;28;19925;-57
2023/08/13 04:48:17;;;;;;;;;;;;;;;;;;6242662;28;20020;-59
2023/08/13 04:51:18;;;;;;;;;;;;;;;;;;6241508;28;20291;-58
2023/08/13 04:54:19;;;;;;;;;;;;;;;;;;6240858;28;19927;-56
2023/08/13 04:57:19;;;;;;;;;;;;;;;;;;6243985;28;19925;-60
2023/08/13 05:00:20;;;;;;;;;;;;;;;;;;6241301;28;19921;-58
2023/08/13 05:03:20;;;;;;;;;;;;;;;;;;6244996;28;19924;-61
2023/08/13 05:06:22;;;;;;;;;;;;;;;;;;6241510;28;20379;-58
2023/08/13 05:09:22;;;;;;;;;;;;;;;;;;6242929;28;20020;-61
2023/08/13 05:12:23;;;;;;;;;;;;;;;;;;6243389;28;19928;-58
2023/08/13 05:15:23;;;;;;;;;;;;;;;;;;6239685;28;19925;-61
2023/08/13 05:18:24;;;;;;;;;;;;;;;;;;6241203;28;20276;-59
2023/08/13 05:21:24;;;;;;;;;;;;;;;;;;6242006;28;19928;-61
2023/08/13 05:24:25;;;;;;;;;;;;;;;;;;6238706;28;19921;-62
2023/08/13 05:27:25;;;;;;;;;;;;;;;;;;6244658;28;19925;-60
2023/08/13 05:30:26;;;;;;;;;;;;;;;;;;6241769;28;19935;-59
2023/08/13 05:33:26;;;;;;;;;;;;;;;;;;6243243;28;19925;-60
2023/08/13 05:36:27;;;;;;;;;;;;;;;;;;6242161;28;19927;-61
2023/08/13 05:39:27;;;;;;;;;;;;;;;;;;6241237;28;19921;-58
2023/08/13 05:42:28;;;;;;;;;;;;;;;;;;6243317;28;20430;-61
2023/08/13 05:45:28;;;;;;;;;;;;;;;;;;6242013;28;19936;-61
2023/08/13 05:48:29;;;;;;;;;;;;;;;;;;6243895;28;19921;-61
2023/08/13 05:51:29;;;;;;;;;;;;;;;;;;6243162;28;20438;-50
2023/08/13 05:54:30;;;;;;;;;;;;;;;;;;6240334;28;19925;-61
2023/08/13 05:57:30;;;;;;;;;;;;;;;;;;6243949;28;20296;-59
2023/08/13 06:00:31;;;;;;;;;;;;;;;;;;6244265;28;19932;-56
2023/08/13 06:03:32;;;;;;;;;;;;;;;;;;6242591;28;19925;-61
2023/08/13 06:06:33;;;;;;;;;;;;;;;;;;6243595;28;19921;-61
2023/08/13 06:09:34;;;;;;;;;;;;;;;;;;6252953;28;19921;-61
2023/08/13 06:12:34;;;;;;;;;;;;;;;;;;6243657;28;19932;-63
2023/08/13 06:15:35;;;;;;;;;;;;;;;;;;6239960;28;19925;-59
2023/08/13 06:18:36;;;;;;;;;;;;;;;;;;6242524;28;20072;-61
2023/08/13 06:21:36;;;;;;;;;;;;;;;;;;6243378;28;19999;-57
2023/08/13 06:24:36;;;;;;;;;;;;;;;;;;6241700;28;19925;-63
2023/08/13 06:27:37;;;;;;;;;;;;;;;;;;6241531;28;20571;-58
2023/08/13 06:30:37;;;;;;;;;;;;;;;;;;6236369;28;19922;-60
2023/08/13 06:33:38;;;;;;;;;;;;;;;;;;6253672;28;20261;-61
2023/08/13 06:36:39;;;;;;;;;;;;;;;;;;6241317;28;19921;-57
2023/08/13 06:39:39;;;;;;;;;;;;;;;;;;6241839;28;20300;-55
2023/08/13 06:42:40;;;;;;;;;;;;;;;;;;6243523;28;20315;-54
2023/08/13 06:45:40;;;;;;;;;;;;;;;;;;6237168;28;19967;-50
2023/08/13 06:48:41;;;;;;;;;;;;;;;;;;6241722;28;19925;-56
2023/08/13 06:51:42;;;;;;;;;;;;;;;;;;6236267;28;19932;-54
2023/08/13 06:54:42;;;;;;;;;;;;;;;;;;6240063;28;19936;-58
2023/08/13 06:57:43;;;;;;;;;;;;;;;;;;6242038;28;20398;-53
2023/08/13 07:00:44;;;;;;;;;;;;;;;;;;6242214;28;19921;-56
2023/08/13 07:03:44;;;;;;;;;;;;;;;;;;6240812;28;19921;-50
2023/08/13 07:06:45;;;;;;;;;;;;;;;;;;6241983;28;19925;-56
2023/08/13 07:09:45;;;;;;;;;;;;;;;;;;6241962;28;19925;-51
2023/08/13 07:12:46;;;;;;;;;;;;;;;;;;6241588;28;19925;-55
2023/08/13 07:15:47;;;;;;;;;;;;;;;;;;6240842;28;19921;-50
2023/08/13 07:18:47;;;;;;;;;;;;;;;;;;6237876;28;19926;-60
2023/08/13 07:21:48;;;;;;;;;;;;;;;;;;6241863;28;19928;-60
2023/08/13 07:24:48;;;;;;;;;;;;;;;;;;6237309;28;19982;-60
2023/08/13 07:27:49;;;;;;;;;;;;;;;;;;6229160;28;20568;-60
2023/08/13 07:30:49;;;;;;;;;;;;;;;;;;6244798;28;20287;-60
2023/08/13 07:33:51;;;;;;;;;;;;;;;;;;6239186;28;20637;-56
2023/08/13 07:36:52;;;;;;;;;;;;;;;;;;6236479;28;19920;-52
2023/08/13 07:39:53;;;;;;;;;;;;;;;;;;6236763;28;19968;-51
2023/08/13 07:42:56;;;;;;;;;;;;;;;;;;6250014;28;19921;-48
2023/08/13 07:45:58;;;;;;;;;;;;;;;;;;6240688;28;20403;-53
2023/08/13 07:48:58;;;;;;;;;;;;;;;;;;6241500;28;19924;-54
2023/08/13 07:51:59;;;;;;;;;;;;;;;;;;6242361;28;19932;-59
2023/08/13 07:55:00;;;;;;;;;;;;;;;;;;6245476;28;19925;-50
2023/08/13 07:58:01;;;;;;;;;;;;;;;;;;6244360;28;20395;-52
2023/08/13 08:01:02;;;;;;;;;;;;;;;;;;6239238;28;19932;-51
2023/08/13 08:04:03;;;;;;;;;;;;;;;;;;6239150;28;19924;-55
2023/08/13 08:07:04;;;;;;;;;;;;;;;;;;6238682;28;19921;-50
2023/08/13 08:10:05;;;;;;;;;;;;;;;;;;6237910;28;19975;-50
2023/08/13 08:13:05;;;;;;;;;;;;;;;;;;6236617;28;19925;-53
2023/08/13 08:16:06;;;;;;;;;;;;;;;;;;6258530;28;20263;-51
2023/08/13 08:19:06;;;;;;;;;;;;;;;;;;6266919;28;19926;-51
2023/08/13 08:22:07;;;;;;;;;;;;;;;;;;6265506;28;20270;-50
2023/08/13 08:25:08;;;;;;;;;;;;;;;;;;6261822;28;19931;-50
2023/08/13 08:28:08;;;;;;;;;;;;;;;;;;6266790;28;20338;-52
2023/08/13 08:31:09;;;;;;;;;;;;;;;;;;6266174;28;19921;-53
2023/08/13 08:34:09;;;;;;;;;;;;;;;;;;6268154;28;19924;-51
2023/08/13 08:37:13;;;;;;;;;;;;;;;;;;6269938;28;20387;-50
2023/08/13 08:40:14;;;;;;;;;;;;;;;;;;6271624;28;19931;-51
2023/08/13 08:43:15;;;;;;;;;;;;;;;;;;6265716;28;19925;-50
2023/08/13 08:46:17;;;;;;;;;;;;;;;;;;6267488;28;20010;-53
2023/08/13 08:49:19;;;;;;;;;;;;;;;;;;6269171;28;20012;-51
2023/08/13 08:52:19;;;;;;;;;;;;;;;;;;6267276;28;20565;-55
2023/08/13 08:55:20;;;;;;;;;;;;;;;;;;6267143;28;19997;-52
2023/08/13 08:58:20;;;;;;;;;;;;;;;;;;6270806;28;20699;-52
2023/08/13 09:01:21;;;;;;;;;;;;;;;;;;6268916;28;19920;-54
2023/08/13 09:04:22;;;;;;;;;;;;;;;;;;6265755;28;19921;-52
2023/08/13 09:07:32;;;;;;;;;;;;;;;;;;6268532;28;19920;-51
2023/08/13 09:10:33;;;;;;;;;;;;;;;;;;6268661;28;20256;-54
2023/08/13 09:13:34;;;;;;;;;;;;;;;;;;6266404;28;19936;-50
2023/08/13 09:16:37;;;;;;;;;;;;;;;;;;6269552;28;20268;-51
2023/08/13 09:19:38;;;;;;;;;;;;;;;;;;6268690;28;20371;-53
2023/08/13 09:22:42;;;;;;;;;;;;;;;;;;6268621;28;19921;-49
2023/08/13 09:25:43;;;;;;;;;;;;;;;;;;6266836;28;19936;-55
2023/08/13 09:28:44;;;;;;;;;;;;;;;;;;6270044;28;20268;-48
2023/08/13 09:31:44;;;;;;;;;;;;;;;;;;6266846;28;19921;-53
2023/08/13 09:34:45;;;;;;;;;;;;;;;;;;6266604;28;19920;-54
2023/08/13 09:37:45;;;;;;;;;;;;;;;;;;6267791;28;19942;-51
2023/08/13 09:40:46;;;;;;;;;;;;;;;;;;6266408;28;19951;-51
2023/08/13 09:43:47;;;;;;;;;;;;;;;;;;6261552;28;20028;-53
2023/08/13 09:46:51;;;;;;;;;;;;;;;;;;6267130;28;19924;-53
2023/08/13 09:49:54;;;;;;;;;;;;;;;;;;6254903;28;19925;-53
2023/08/13 09:52:56;;;;;;;;;;;;;;;;;;6251440;28;20359;-59
2023/08/13 09:56:00;;;;;;;;;;;;;;;;;;6260545;28;19928;-53
2023/08/13 09:59:00;;;;;;;;;;;;;;;;;;6259604;28;19924;-51
2023/08/13 10:02:05;;;;;;;;;;;;;;;;;;6261262;28;19929;-54
2023/08/13 10:05:06;;;;;;;;;;;;;;;;;;6259789;28;20020;-52
2023/08/13 10:08:07;;;;;;;;;;;;;;;;;;6272268;28;20513;-51
2023/08/13 10:11:07;;;;;;;;;;;;;;;;;;6272909;28;19932;-58
2023/08/13 10:14:08;;;;;;;;;;;;;;;;;;6260993;28;19929;-54
2023/08/13 10:17:08;;;;;;;;;;;;;;;;;;6269422;28;20005;-52
2023/08/13 10:20:09;;;;;;;;;;;;;;;;;;6264321;28;19925;-55
2023/08/13 10:23:10;;;;;;;;;;;;;;;;;;6269943;28;19924;-55
2023/08/13 10:26:11;;;;;;;;;;;;;;;;;;6264968;28;20671;-51
2023/08/13 10:29:18;;;;;;;;;;;;;;;;;;6266385;28;19920;-53
2023/08/13 10:32:24;;;;;;;;;;;;;;;;;;6266264;28;19939;-51
2023/08/13 10:35:25;;;;;;;;;;;;;;;;;;6265721;28;19995;-57
2023/08/13 10:38:33;;;;;;;;;;;;;;;;;;6264973;28;19928;-51
2023/08/13 10:41:34;;;;;;;;;;;;;;;;;;6273074;28;19925;-50
2023/08/13 10:44:41;;;;;;;;;;;;;;;;;;6267188;28;19966;-53
2023/08/13 10:47:45;;;;;;;;;;;;;;;;;;6261600;28;19925;-53
2023/08/13 10:50:46;;;;;;;;;;;;;;;;;;6264184;28;19928;-56
2023/08/13 10:53:48;;;;;;;;;;;;;;;;;;6271242;28;20013;-53
2023/08/13 10:56:53;;;;;;;;;;;;;;;;;;6268763;28;19924;-55
2023/08/13 10:59:54;;;;;;;;;;;;;;;;;;6250350;28;19990;-57
2023/08/13 11:03:00;;;;;;;;;;;;;;;;;;6247806;28;20015;-59
2023/08/13 11:06:01;;;;;;;;;;;;;;;;;;6249120;28;19932;-61
2023/08/13 11:09:06;;;;;;;;;;;;;;;;;;6248558;28;20006;-60
2023/08/13 11:12:08;;;;;;;;;;;;;;;;;;6250488;28;19975;-56
2023/08/13 11:15:09;;;;;;;;;;;;;;;;;;6248365;28;19939;-61
2023/08/13 11:18:09;;;;;;;;;;;;;;;;;;6248209;28;20303;-59
2023/08/13 11:21:10;;;;;;;;;;;;;;;;;;6249763;28;20444;-60
2023/08/13 11:24:10;;;;;;;;;;;;;;;;;;6244932;28;19925;-61
2023/08/13 11:27:11;;;;;;;;;;;;;;;;;;6250057;28;19920;-51
2023/08/13 11:30:12;;;;;;;;;;;;;;;;;;6254036;28;19924;-54
2023/08/13 11:33:13;;;;;;;;;;;;;;;;;;6244076;28;19921;-56
2023/08/13 11:36:14;;;;;;;;;;;;;;;;;;6248735;28;19920;-56
2023/08/13 11:39:15;;;;;;;;;;;;;;;;;;6248349;28;19966;-55
2023/08/13 11:42:16;;;;;;;;;;;;;;;;;;6253339;28;19933;-55
2023/08/13 11:45:16;;;;;;;;;;;;;;;;;;6249978;28;19979;-53
2023/08/13 11:48:17;;;;;;;;;;;;;;;;;;6250517;28;20015;-54
2023/08/13 11:51:24;;;;;;;;;;;;;;;;;;6253939;28;19935;-54
2023/08/13 11:54:24;;;;;;;;;;;;;;;;;;6247330;28;19920;-55
2023/08/13 11:57:26;;;;;;;;;;;;;;;;;;6242128;28;20291;-52
2023/08/13 12:00:26;;;;;;;;;;;;;;;;;;6251345;28;19929;-56
2023/08/13 12:03:33;;;;;;;;;;;;;;;;;;6245755;28;20458;-53
2023/08/13 12:06:34;;;;;;;;;;;;;;;;;;6252392;28;20307;-55
2023/08/13 12:09:35;;;;;;;;;;;;;;;;;;6248158;28;20391;-61
2023/08/13 12:12:35;;;;;;;;;;;;;;;;;;6253433;28;20090;-60
2023/08/13 12:15:37;;;;;;;;;;;;;;;;;;6254103;28;19928;-60
2023/08/13 12:18:38;;;;;;;;;;;;;;;;;;6248943;28;19933;-58
2023/08/13 12:21:38;;;;;;;;;;;;;;;;;;6248588;28;19968;-59
2023/08/13 12:24:39;;;;;;;;;;;;;;;;;;6249819;28;20437;-61
2023/08/13 12:27:40;;;;;;;;;;;;;;;;;;6248915;28;20330;-54
2023/08/13 12:30:40;;;;;;;;;;;;;;;;;;6261409;28;19936;-58
2023/08/13 12:33:41;;;;;;;;;;;;;;;;;;6243415;28;19921;-56
2023/08/13 12:36:41;;;;;;;;;;;;;;;;;;6248532;28;19932;-57
2023/08/13 12:39:42;;;;;;;;;;;;;;;;;;6253591;28;19925;-61
2023/08/13 12:42:43;;;;;;;;;;;;;;;;;;6250212;28;19940;-57
2023/08/13 12:45:43;;;;;;;;;;;;;;;;;;6253322;28;19944;-60
2023/08/13 12:48:44;;;;;;;;;;;;;;;;;;6252600;28;20368;-60
2023/08/13 12:51:44;;;;;;;;;;;;;;;;;;6249668;28;19935;-60
2023/08/13 12:54:45;;;;;;;;;;;;;;;;;;6255469;28;20283;-60
2023/08/13 12:57:45;;;;;;;;;;;;;;;;;;6252764;28;19925;-60
2023/08/13 13:00:46;;;;;;;;;;;;;;;;;;6254092;28;20045;-60
2023/08/13 13:03:46;;;;;;;;;;;;;;;;;;6249956;28;19929;-60
2023/08/13 13:06:47;;;;;;;;;;;;;;;;;;6252056;28;19931;-60
2023/08/13 13:09:49;;;;;;;;;;;;;;;;;;6250545;28;20297;-59
2023/08/13 13:12:49;;;;;;;;;;;;;;;;;;6254811;28;20662;-59
2023/08/13 13:15:50;;;;;;;;;;;;;;;;;;6252727;28;19929;-60
2023/08/13 13:18:50;;;;;;;;;;;;;;;;;;6249878;28;20375;-58
2023/08/13 13:21:51;;;;;;;;;;;;;;;;;;6254594;28;20356;-57
2023/08/13 13:24:51;;;;;;;;;;;;;;;;;;6252471;28;19921;-56
2023/08/13 13:27:52;;;;;;;;;;;;;;;;;;6252204;28;19951;-60
2023/08/13 13:30:52;;;;;;;;;;;;;;;;;;6251298;28;19928;-60
2023/08/13 13:33:53;;;;;;;;;;;;;;;;;;6252878;28;19982;-59
2023/08/13 13:36:54;;;;;;;;;;;;;;;;;;6252951;28;20418;-61
2023/08/13 13:39:55;;;;;;;;;;;;;;;;;;6252392;28;20062;-61
2023/08/13 13:42:55;;;;;;;;;;;;;;;;;;6251652;28;19929;-61
2023/08/13 13:45:57;;;;;;;;;;;;;;;;;;6256997;28;19925;-60
2023/08/13 13:48:57;;;;;;;;;;;;;;;;;;6248786;28;19924;-60
2023/08/13 13:51:58;;;;;;;;;;;;;;;;;;6254520;28;19932;-61
2023/08/13 13:54:59;;;;;;;;;;;;;;;;;;6253447;28;20299;-54
2023/08/13 13:57:59;;;;;;;;;;;;;;;;;;6249177;28;19928;-58
2023/08/13 14:01:01;;;;;;;;;;;;;;;;;;6253726;28;19928;-54
2023/08/13 14:04:02;;;;;;;;;;;;;;;;;;6255092;28;19982;-58
2023/08/13 14:07:02;;;;;;;;;;;;;;;;;;6251246;28;19928;-54
2023/08/13 14:10:03;;;;;;;;;;;;;;;;;;6247236;28;19925;-57
2023/08/13 14:13:03;;;;;;;;;;;;;;;;;;6245909;28;19952;-59
2023/08/13 14:16:04;;;;;;;;;;;;;;;;;;6250367;28;19956;-59
2023/08/13 14:19:04;;;;;;;;;;;;;;;;;;6247667;28;21248;-57
2023/08/13 14:22:05;;;;;;;;;;;;;;;;;;6246095;28;19928;-58
2023/08/13 14:25:06;;;;;;;;;;;;;;;;;;6243310;28;20391;-59
2023/08/13 14:28:08;;;;;;;;;;;;;;;;;;6242134;28;19928;-57
2023/08/13 14:31:08;;;;;;;;;;;;;;;;;;6248041;28;20379;-55
2023/08/13 14:34:09;;;;;;;;;;;;;;;;;;6254063;28;19934;-59
2023/08/13 14:37:09;;;;;;;;;;;;;;;;;;6250278;28;19928;-59
2023/08/13 14:40:11;;;;;;;;;;;;;;;;;;6257262;28;19929;-52
2023/08/13 14:43:11;;;;;;;;;;;;;;;;;;6254474;28;20295;-54
2023/08/13 14:46:12;;;;;;;;;;;;;;;;;;6250888;28;19968;-53
2023/08/13 14:49:12;;;;;;;;;;;;;;;;;;6249870;28;20343;-55
2023/08/13 14:52:13;;;;;;;;;;;;;;;;;;6243813;28;20372;-55
2023/08/13 14:55:13;;;;;;;;;;;;;;;;;;6248158;28;20292;-51
2023/08/13 14:58:14;;;;;;;;;;;;;;;;;;6245022;28;20322;-55
2023/08/13 15:01:14;;;;;;;;;;;;;;;;;;6253916;28;19925;-54
2023/08/13 15:04:15;;;;;;;;;;;;;;;;;;6262435;28;19920;-54
2023/08/13 15:07:15;;;;;;;;;;;;;;;;;;6262434;28;20127;-53
2023/08/13 15:10:17;;;;;;;;;;;;;;;;;;6264301;28;19929;-54
2023/08/13 15:13:18;;;;;;;;;;;;;;;;;;6254116;28;20061;-53
2023/08/13 15:16:18;;;;;;;;;;;;;;;;;;6256625;28;19924;-52
2023/08/13 15:19:19;;;;;;;;;;;;;;;;;;6255431;28;19921;-51
2023/08/13 15:22:20;;;;;;;;;;;;;;;;;;6257488;28;19928;-53
2023/08/13 15:25:20;;;;;;;;;;;;;;;;;;6259347;28;20360;-54
2023/08/13 15:28:21;;;;;;;;;;;;;;;;;;6255146;28;19954;-54
2023/08/13 15:31:22;;;;;;;;;;;;;;;;;;6255995;28;21219;-57
2023/08/13 15:34:23;;;;;;;;;;;;;;;;;;6254939;28;19924;-52
2023/08/13 15:37:23;;;;;;;;;;;;;;;;;;6256242;28;19975;-52
2023/08/13 15:40:24;;;;;;;;;;;;;;;;;;6257206;28;19928;-54
2023/08/13 15:43:24;;;;;;;;;;;;;;;;;;6255391;28;19925;-54
2023/08/13 15:46:25;;;;;;;;;;;;;;;;;;6254604;28;20070;-51
2023/08/13 15:49:25;;;;;;;;;;;;;;;;;;6254567;28;20381;-53
2023/08/13 15:52:27;;;;;;;;;;;;;;;;;;6252174;28;20379;-54
2023/08/13 15:55:27;;;;;;;;;;;;;;;;;;6254876;28;19928;-53
2023/08/13 15:58:28;;;;;;;;;;;;;;;;;;6253242;28;20035;-53
2023/08/13 16:01:29;;;;;;;;;;;;;;;;;;6255879;28;19924;-53
2023/08/13 16:04:29;;;;;;;;;;;;;;;;;;6253031;28;20058;-53
2023/08/13 16:07:30;;;;;;;;;;;;;;;;;;6255238;28;20371;-56
2023/08/13 16:10:32;;;;;;;;;;;;;;;;;;6256637;28;20750;-59
2023/08/13 16:13:35;;;;;;;;;;;;;;;;;;6251342;28;19936;-58
2023/08/13 16:16:36;;;;;;;;;;;;;;;;;;6253304;28;19928;-61
2023/08/13 16:19:37;;;;;;;;;;;;;;;;;;6247113;28;19933;-58
2023/08/13 16:22:39;;;;;;;;;;;;;;;;;;6249121;28;19979;-59
2023/08/13 16:25:39;;;;;;;;;;;;;;;;;;6250330;28;20473;-59
2023/08/13 16:28:40;;;;;;;;;;;;;;;;;;6247193;28;19926;-58
2023/08/13 16:31:40;;;;;;;;;;;;;;;;;;6253105;28;19940;-60
2023/08/13 16:34:41;;;;;;;;;;;;;;;;;;6249837;28;19929;-54
2023/08/13 16:37:41;;;;;;;;;;;;;;;;;;6244297;28;19929;-60
2023/08/13 16:40:42;;;;;;;;;;;;;;;;;;6249354;28;19929;-59
2023/08/13 16:43:43;;;;;;;;;;;;;;;;;;6242046;28;19929;-59
2023/08/13 16:46:44;;;;;;;;;;;;;;;;;;6248513;28;19928;-60
2023/08/13 16:49:44;;;;;;;;;;;;;;;;;;6245664;28;19957;-59
2023/08/13 16:52:44;;;;;;;;;;;;;;;;;;6245407;28;19928;-60
2023/08/13 16:55:45;;;;;;;;;;;;;;;;;;6254505;28;19929;-60
2023/08/13 16:58:46;;;;;;;;;;;;;;;;;;6248162;28;20020;-58
2023/08/13 17:01:46;;;;;;;;;;;;;;;;;;6258390;28;19928;-56
2023/08/13 17:04:47;;;;;;;;;;;;;;;;;;6247662;28;19928;-59
2023/08/13 17:07:47;;;;;;;;;;;;;;;;;;6247491;28;20017;-59
2023/08/13 17:10:48;;;;;;;;;;;;;;;;;;6256210;28;19921;-60
2023/08/13 17:13:48;;;;;;;;;;;;;;;;;;6247744;28;19929;-55
2023/08/13 17:16:49;;;;;;;;;;;;;;;;;;6254647;28;19924;-59
2023/08/13 17:19:49;;;;;;;;;;;;;;;;;;6256056;28;19928;-55
2023/08/13 17:22:50;;;;;;;;;;;;;;;;;;6251211;28;19971;-56
2023/08/13 17:25:50;;;;;;;;;;;;;;;;;;6253609;28;20672;-59
2023/08/13 17:28:51;;;;;;;;;;;;;;;;;;6257066;28;19932;-57
2023/08/13 17:31:51;;;;;;;;;;;;;;;;;;6256440;28;19925;-56
2023/08/13 17:34:52;;;;;;;;;;;;;;;;;;6249346;28;19950;-50
2023/08/13 17:37:53;;;;;;;;;;;;;;;;;;6250554;28;19924;-59
2023/08/13 17:40:53;;;;;;;;;;;;;;;;;;6245763;28;20997;-59
2023/08/13 17:43:54;;;;;;;;;;;;;;;;;;6246886;28;19935;-59
2023/08/13 17:46:54;;;;;;;;;;;;;;;;;;6250127;28;19936;-61
2023/08/13 17:49:55;;;;;;;;;;;;;;;;;;6252982;28;19925;-52
2023/08/13 17:52:56;;;;;;;;;;;;;;;;;;6242990;28;19925;-59
2023/08/13 17:55:56;;;;;;;;;;;;;;;;;;6249118;28;19940;-60
2023/08/13 17:58:57;;;;;;;;;;;;;;;;;;6246843;28;19940;-58
2023/08/13 18:01:57;;;;;;;;;;;;;;;;;;6254050;28;19936;-56
2023/08/13 18:04:58;;;;;;;;;;;;;;;;;;6245664;28;20035;-54
2023/08/13 18:07:59;;;;;;;;;;;;;;;;;;6247307;28;19928;-59
2023/08/13 18:10:59;;;;;;;;;;;;;;;;;;6249855;28;20005;-59
2023/08/13 18:14:00;;;;;;;;;;;;;;;;;;6243881;28;19936;-58
2023/08/13 18:17:01;;;;;;;;;;;;;;;;;;6225346;28;20015;-60
2023/08/13 18:20:03;;;;;;;;;;;;;;;;;;6219979;28;19925;-52
2023/08/13 18:23:03;;;;;;;;;;;;;;;;;;6218522;28;19921;-61
2023/08/13 18:26:04;;;;;;;;;;;;;;;;;;6222971;28;19987;-60
2023/08/13 18:29:05;;;;;;;;;;;;;;;;;;6223070;28;19930;-60
2023/08/13 18:32:05;;;;;;;;;;;;;;;;;;6217413;28;20385;-57
2023/08/13 18:35:06;;;;;;;;;;;;;;;;;;6223610;28;20067;-55
2023/08/13 18:38:07;;;;;;;;;;;;;;;;;;6221461;28;20572;-52
2023/08/13 18:41:08;;;;;;;;;;;;;;;;;;6216566;28;20039;-56
2023/08/13 18:44:09;;;;;;;;;;;;;;;;;;6215866;28;20016;-50
2023/08/13 18:47:09;;;;;;;;;;;;;;;;;;6220898;28;20394;-51
2023/08/13 18:50:10;;;;;;;;;;;;;;;;;;6221843;28;19928;-51
2023/08/13 18:53:10;;;;;;;;;;;;;;;;;;6218484;28;20392;-53
2023/08/13 18:56:11;;;;;;;;;;;;;;;;;;6217171;28;19929;-60
2023/08/13 18:59:11;;;;;;;;;;;;;;;;;;6216680;28;19930;-54
2023/08/13 19:02:12;;;;;;;;;;;;;;;;;;6217662;28;20631;-56
2023/08/13 19:05:13;;;;;;;;;;;;;;;;;;6215479;28;19964;-57
2023/08/13 19:08:14;;;;;;;;;;;;;;;;;;6216385;28;20807;-55
2023/08/13 19:11:14;;;;;;;;;;;;;;;;;;6220782;28;20426;-57
2023/08/13 19:14:15;;;;;;;;;;;;;;;;;;6223237;28;19924;-57
2023/08/13 19:17:16;;;;;;;;;;;;;;;;;;6247888;28;19935;-49
2023/08/13 19:20:17;;;;;;;;;;;;;;;;;;6231998;28;19979;-49
2023/08/13 19:23:17;;;;;;;;;;;;;;;;;;6227631;28;20019;-57
2023/08/13 19:26:18;;;;;;;;;;;;;;;;;;6246776;28;19924;-51
2023/08/13 19:29:19;;;;;;;;;;;;;;;;;;6252090;28;19924;-50
2023/08/13 19:32:19;;;;;;;;;;;;;;;;;;6246746;28;19991;-55
2023/08/13 19:35:20;;;;;;;;;;;;;;;;;;6248341;28;20356;-52
2023/08/13 19:38:20;;;;;;;;;;;;;;;;;;6250063;28;19932;-55
2023/08/13 19:41:21;;;;;;;;;;;;;;;;;;6249642;28;20286;-54
2023/08/13 19:44:21;;;;;;;;;;;;;;;;;;6242743;28;19995;-54
2023/08/13 19:47:22;;;;;;;;;;;;;;;;;;6249328;28;19927;-53
2023/08/13 19:50:23;;;;;;;;;;;;;;;;;;6250676;28;20268;-55
2023/08/13 19:53:23;;;;;;;;;;;;;;;;;;6241996;28;20404;-54
2023/08/13 19:56:25;;;;;;;;;;;;;;;;;;6246069;28;19925;-55
2023/08/13 19:59:26;;;;;;;;;;;;;;;;;;6245327;28;19921;-56
2023/08/13 20:02:26;;;;;;;;;;;;;;;;;;6246615;28;19936;-54
2023/08/13 20:05:27;;;;;;;;;;;;;;;;;;6249408;28;19935;-54
2023/08/13 20:08:27;;;;;;;;;;;;;;;;;;6233738;28;19932;-55
2023/08/13 20:11:28;;;;;;;;;;;;;;;;;;6226855;28;19960;-54
2023/08/13 20:14:28;;;;;;;;;;;;;;;;;;6230839;28;20414;-51
2023/08/13 20:17:29;;;;;;;;;;;;;;;;;;6237380;28;19929;-53
2023/08/13 20:20:29;;;;;;;;;;;;;;;;;;6236639;28;19935;-54
2023/08/13 20:23:30;;;;;;;;;;;;;;;;;;6231556;28;19940;-59
2023/08/13 20:26:30;;;;;;;;;;;;;;;;;;6231320;28;19971;-55
2023/08/13 20:29:31;;;;;;;;;;;;;;;;;;6236770;28;19937;-54
2023/08/13 20:32:32;;;;;;;;;;;;;;;;;;6240803;28;19929;-52
2023/08/13 20:35:32;;;;;;;;;;;;;;;;;;6239787;28;19936;-56